sensor_id;sensor_type;location;lat;lon;timestamp;pressure;altitude;pressure_sealevel;temperature;humidity
73870;BME280;64924;42.140;24.762;2023-02-01T00:02:01;99731.41;;;6.01;46.21
73870;BME280;64924;42.140;24.762;2023-02-01T00:04:27;99753.69;;;6.12;46.14
73870;BME280;64924;42.140;24.762;2023-02-01T00:06:52;99769.00;;;6.03;46.37
73870;BME280;64924;42.140;24.762;2023-02-01T00:09:18;99750.66;;;6.07;46.47
73870;BME280;64924;42.140;24.762;2023-02-01T00:11:43;99765.13;;;6.06;46.05
73870;BME280;64924;42.140;24.762;2023-02-01T00:14:09;99751.50;;;6.07;46.10
73870;BME280;64924;42.140;24.762;2023-02-01T00:16:35;99742.72;;;6.05;45.85
73870;BME280;64924;42.140;24.762;2023-02-01T00:19:07;99750.19;;;6.19;45.73
73870;BME280;64924;42.140;24.762;2023-02-01T00:21:33;99761.81;;;6.20;45.65
73870;BME280;64924;42.140;24.762;2023-02-01T00:24:00;99753.38;;;6.15;45.72
73870;BME280;64924;42.140;24.762;2023-02-01T00:26:58;99744.13;;;6.25;45.31
73870;BME280;64924;42.140;24.762;2023-02-01T00:29:26;99725.00;;;5.94;45.82
73870;BME280;64924;42.140;24.762;2023-02-01T00:31:52;99755.56;;;6.11;45.56
73870;BME280;64924;42.140;24.762;2023-02-01T00:34:18;99760.47;;;6.16;45.66
73870;BME280;64924;42.140;24.762;2023-02-01T00:36:49;99749.31;;;6.11;45.67
73870;BME280;64924;42.140;24.762;2023-02-01T00:39:21;99752.53;;;6.14;45.63
73870;BME280;64924;42.140;24.762;2023-02-01T00:41:51;99736.47;;;5.96;45.88
73870;BME280;64924;42.140;24.762;2023-02-01T00:44:36;99751.63;;;5.97;45.89
73870;BME280;64924;42.140;24.762;2023-02-01T00:47:03;99762.09;;;6.00;45.96
73870;BME280;64924;42.140;24.762;2023-02-01T00:49:45;99761.13;;;6.18;45.87
73870;BME280;64924;42.140;24.762;2023-02-01T00:52:39;99729.91;;;6.07;45.48
73870;BME280;64924;42.140;24.762;2023-02-01T00:55:06;99722.59;;;5.83;45.60
73870;BME280;64924;42.140;24.762;2023-02-01T00:57:33;99759.06;;;6.03;45.80
73870;BME280;64924;42.140;24.762;2023-02-01T00:59:58;99745.22;;;5.90;46.15
73870;BME280;64924;42.140;24.762;2023-02-01T01:02:34;99743.88;;;5.94;45.89
73870;BME280;64924;42.140;24.762;2023-02-01T01:05:02;99738.31;;;5.96;46.03
73870;BME280;64924;42.140;24.762;2023-02-01T01:07:35;99654.25;;;5.42;46.13
73870;BME280;64924;42.140;24.762;2023-02-01T01:10:25;99744.91;;;5.93;45.91
73870;BME280;64924;42.140;24.762;2023-02-01T01:12:52;99728.81;;;5.84;45.88
73870;BME280;64924;42.140;24.762;2023-02-01T01:15:24;99724.09;;;5.78;46.19
73870;BME280;64924;42.140;24.762;2023-02-01T01:17:51;99704.00;;;5.72;46.05
73870;BME280;64924;42.140;24.762;2023-02-01T01:20:40;99731.59;;;5.92;46.12
73870;BME280;64924;42.140;24.762;2023-02-01T01:23:08;99736.34;;;5.72;46.82
73870;BME280;64924;42.140;24.762;2023-02-01T01:25:42;99742.22;;;6.01;46.07
73870;BME280;64924;42.140;24.762;2023-02-01T01:28:07;99744.00;;;5.85;46.37
73870;BME280;64924;42.140;24.762;2023-02-01T01:30:45;99692.34;;;5.63;46.14
73870;BME280;64924;42.140;24.762;2023-02-01T01:33:11;99743.84;;;5.86;46.20
73870;BME280;64924;42.140;24.762;2023-02-01T01:35:38;99740.13;;;5.87;46.27
73870;BME280;64924;42.140;24.762;2023-02-01T01:38:06;99753.50;;;6.05;46.02
73870;BME280;64924;42.140;24.762;2023-02-01T01:40:35;99736.97;;;5.92;45.97
73870;BME280;64924;42.140;24.762;2023-02-01T01:43:01;99750.47;;;6.00;45.66
73870;BME280;64924;42.140;24.762;2023-02-01T01:47:57;99754.16;;;5.91;45.85
73870;BME280;64924;42.140;24.762;2023-02-01T01:50:33;99741.44;;;5.75;46.32
73870;BME280;64924;42.140;24.762;2023-02-01T01:53:04;99758.97;;;5.79;46.69
73870;BME280;64924;42.140;24.762;2023-02-01T01:55:34;99746.63;;;5.68;46.42
73870;BME280;64924;42.140;24.762;2023-02-01T01:58:21;99710.69;;;5.52;46.40
73870;BME280;64924;42.140;24.762;2023-02-01T02:00:48;99751.16;;;5.68;46.36
73870;BME280;64924;42.140;24.762;2023-02-01T02:03:41;99751.38;;;5.75;46.72
73870;BME280;64924;42.140;24.762;2023-02-01T02:06:26;99748.78;;;5.65;46.61
73870;BME280;64924;42.140;24.762;2023-02-01T02:08:55;99757.03;;;5.55;46.82
73870;BME280;64924;42.140;24.762;2023-02-01T02:11:21;99743.41;;;5.57;46.47
73870;BME280;64924;42.140;24.762;2023-02-01T02:13:51;99741.88;;;5.54;46.46
73870;BME280;64924;42.140;24.762;2023-02-01T02:27:00;99747.09;;;5.64;46.42
73870;BME280;64924;42.140;24.762;2023-02-01T02:33:22;99759.88;;;5.54;46.71
73870;BME280;64924;42.140;24.762;2023-02-01T02:38:05;99753.22;;;5.74;46.11
73870;BME280;64924;42.140;24.762;2023-02-01T02:43:37;99757.41;;;5.68;46.25
73870;BME280;64924;42.140;24.762;2023-02-01T02:46:36;99747.47;;;5.69;46.03
73870;BME280;64924;42.140;24.762;2023-02-01T02:52:09;99764.41;;;5.87;45.93
73870;BME280;64924;42.140;24.762;2023-02-01T02:54:57;99769.66;;;5.63;46.54
73870;BME280;64924;42.140;24.762;2023-02-01T02:57:41;99769.03;;;5.69;46.40
73870;BME280;64924;42.140;24.762;2023-02-01T03:00:31;99755.50;;;5.61;46.42
73870;BME280;64924;42.140;24.762;2023-02-01T03:03:16;99761.56;;;5.55;46.39
73870;BME280;64924;42.140;24.762;2023-02-01T03:06:00;99744.47;;;5.38;46.86
73870;BME280;64924;42.140;24.762;2023-02-01T03:08:28;99740.66;;;5.49;46.62
73870;BME280;64924;42.140;24.762;2023-02-01T03:11:02;99762.06;;;5.58;46.73
73870;BME280;64924;42.140;24.762;2023-02-01T03:16:30;99751.28;;;5.58;46.76
73870;BME280;64924;42.140;24.762;2023-02-01T03:19:09;99747.06;;;5.48;47.20
73870;BME280;64924;42.140;24.762;2023-02-01T03:21:50;99718.16;;;5.32;46.85
73870;BME280;64924;42.140;24.762;2023-02-01T03:27:13;99758.63;;;5.40;47.31
73870;BME280;64924;42.140;24.762;2023-02-01T03:30:08;99766.75;;;5.48;46.94
73870;BME280;64924;42.140;24.762;2023-02-01T03:32:36;99708.34;;;5.15;47.41
73870;BME280;64924;42.140;24.762;2023-02-01T03:35:25;99750.69;;;5.38;47.65
73870;BME280;64924;42.140;24.762;2023-02-01T03:38:00;99750.19;;;5.35;47.56
73870;BME280;64924;42.140;24.762;2023-02-01T03:40:27;99767.75;;;5.47;47.64
73870;BME280;64924;42.140;24.762;2023-02-01T03:42:59;99773.84;;;5.49;47.49
73870;BME280;64924;42.140;24.762;2023-02-01T03:45:30;99729.09;;;5.30;47.65
73870;BME280;64924;42.140;24.762;2023-02-01T03:47:58;99743.88;;;5.26;47.61
73870;BME280;64924;42.140;24.762;2023-02-01T03:50:26;99758.25;;;5.35;47.78
73870;BME280;64924;42.140;24.762;2023-02-01T03:53:02;99755.41;;;5.36;48.15
73870;BME280;64924;42.140;24.762;2023-02-01T03:55:29;99759.06;;;5.27;48.16
73870;BME280;64924;42.140;24.762;2023-02-01T03:58:20;99763.16;;;5.40;48.11
73870;BME280;64924;42.140;24.762;2023-02-01T04:00:51;99765.59;;;5.25;48.62
73870;BME280;64924;42.140;24.762;2023-02-01T04:03:17;99733.88;;;5.11;48.25
73870;BME280;64924;42.140;24.762;2023-02-01T04:05:42;99751.13;;;5.26;48.12
73870;BME280;64924;42.140;24.762;2023-02-01T04:08:08;99776.22;;;5.26;48.70
73870;BME280;64924;42.140;24.762;2023-02-01T04:10:33;99775.84;;;5.21;48.71
73870;BME280;64924;42.140;24.762;2023-02-01T04:12:59;99772.44;;;5.11;48.51
73870;BME280;64924;42.140;24.762;2023-02-01T04:15:24;99779.19;;;5.15;48.64
73870;BME280;64924;42.140;24.762;2023-02-01T04:17:51;99770.69;;;5.02;48.92
73870;BME280;64924;42.140;24.762;2023-02-01T04:20:17;99778.59;;;5.03;48.99
73870;BME280;64924;42.140;24.762;2023-02-01T04:22:43;99783.75;;;4.97;49.09
73870;BME280;64924;42.140;24.762;2023-02-01T04:25:11;99795.59;;;5.04;48.58
73870;BME280;64924;42.140;24.762;2023-02-01T04:27:37;99800.59;;;5.17;48.30
73870;BME280;64924;42.140;24.762;2023-02-01T04:30:04;99797.88;;;5.17;48.29
73870;BME280;64924;42.140;24.762;2023-02-01T04:32:29;99802.38;;;5.08;48.00
73870;BME280;64924;42.140;24.762;2023-02-01T04:34:55;99787.38;;;5.06;47.46
73870;BME280;64924;42.140;24.762;2023-02-01T04:37:20;99795.28;;;5.07;47.52
73870;BME280;64924;42.140;24.762;2023-02-01T04:39:46;99795.97;;;5.09;47.19
73870;BME280;64924;42.140;24.762;2023-02-01T04:42:11;99746.91;;;4.72;46.83
73870;BME280;64924;42.140;24.762;2023-02-01T04:44:37;99810.28;;;5.10;47.28
73870;BME280;64924;42.140;24.762;2023-02-01T04:47:05;99795.59;;;5.04;47.15
73870;BME280;64924;42.140;24.762;2023-02-01T04:49:31;99806.91;;;5.08;46.92
73870;BME280;64924;42.140;24.762;2023-02-01T04:51:56;99803.31;;;4.99;47.28
73870;BME280;64924;42.140;24.762;2023-02-01T04:54:22;99813.97;;;5.09;47.00
73870;BME280;64924;42.140;24.762;2023-02-01T04:56:47;99813.44;;;5.05;46.93
73870;BME280;64924;42.140;24.762;2023-02-01T04:59:12;99805.75;;;5.10;46.86
73870;BME280;64924;42.140;24.762;2023-02-01T05:01:38;99810.69;;;4.97;46.67
73870;BME280;64924;42.140;24.762;2023-02-01T05:04:04;99818.28;;;5.01;46.72
73870;BME280;64924;42.140;24.762;2023-02-01T05:06:29;99760.09;;;4.83;46.45
73870;BME280;64924;42.140;24.762;2023-02-01T05:08:55;99808.97;;;5.14;45.93
73870;BME280;64924;42.140;24.762;2023-02-01T05:11:20;99810.66;;;5.15;46.04
73870;BME280;64924;42.140;24.762;2023-02-01T05:14:04;99816.59;;;5.18;45.67
73870;BME280;64924;42.140;24.762;2023-02-01T05:16:30;99821.28;;;5.16;45.94
73870;BME280;64924;42.140;24.762;2023-02-01T05:18:56;99819.75;;;5.14;45.78
73870;BME280;64924;42.140;24.762;2023-02-01T05:21:21;99821.28;;;5.16;45.56
73870;BME280;64924;42.140;24.762;2023-02-01T05:23:47;99831.84;;;5.10;45.57
73870;BME280;64924;42.140;24.762;2023-02-01T05:26:31;99823.28;;;5.14;45.10
73870;BME280;64924;42.140;24.762;2023-02-01T05:28:57;99807.31;;;5.21;44.61
73870;BME280;64924;42.140;24.762;2023-02-01T05:31:23;99797.06;;;5.24;44.67
73870;BME280;64924;42.140;24.762;2023-02-01T05:33:49;99800.34;;;5.36;44.23
73870;BME280;64924;42.140;24.762;2023-02-01T05:36:14;99811.41;;;5.51;44.22
73870;BME280;64924;42.140;24.762;2023-02-01T05:38:40;99808.88;;;5.49;44.60
73870;BME280;64924;42.140;24.762;2023-02-01T05:41:11;99797.25;;;5.49;44.18
73870;BME280;64924;42.140;24.762;2023-02-01T05:43:38;99809.47;;;5.69;44.10
73870;BME280;64924;42.140;24.762;2023-02-01T05:46:04;99788.00;;;5.51;43.99
73870;BME280;64924;42.140;24.762;2023-02-01T05:48:29;99810.97;;;5.97;43.75
73870;BME280;64924;42.140;24.762;2023-02-01T05:50:55;99773.09;;;6.15;43.11
73870;BME280;64924;42.140;24.762;2023-02-01T05:53:20;99791.38;;;6.46;42.72
73870;BME280;64924;42.140;24.762;2023-02-01T05:55:46;99801.69;;;6.91;41.89
73870;BME280;64924;42.140;24.762;2023-02-01T05:58:11;99821.22;;;7.50;41.04
73870;BME280;64924;42.140;24.762;2023-02-01T06:00:37;99796.03;;;7.96;39.49
73870;BME280;64924;42.140;24.762;2023-02-01T06:03:03;99790.31;;;8.22;39.28
73870;BME280;64924;42.140;24.762;2023-02-01T06:05:28;99814.50;;;8.24;38.18
73870;BME280;64924;42.140;24.762;2023-02-01T06:07:54;99785.06;;;7.98;38.94
73870;BME280;64924;42.140;24.762;2023-02-01T06:10:20;99759.38;;;7.47;38.72
73870;BME280;64924;42.140;24.762;2023-02-01T06:12:45;99760.44;;;7.29;38.70
73870;BME280;64924;42.140;24.762;2023-02-01T06:15:12;99814.13;;;7.49;39.36
73870;BME280;64924;42.140;24.762;2023-02-01T06:17:38;99807.72;;;7.42;38.42
73870;BME280;64924;42.140;24.762;2023-02-01T06:20:05;99820.75;;;7.38;39.03
73870;BME280;64924;42.140;24.762;2023-02-01T06:22:32;99821.59;;;7.30;38.69
73870;BME280;64924;42.140;24.762;2023-02-01T06:24:58;99824.25;;;7.55;37.52
73870;BME280;64924;42.140;24.762;2023-02-01T06:27:24;99821.34;;;8.12;36.99
73870;BME280;64924;42.140;24.762;2023-02-01T06:29:50;99806.69;;;8.91;36.00
73870;BME280;64924;42.140;24.762;2023-02-01T06:32:15;99805.59;;;9.82;34.14
73870;BME280;64924;42.140;24.762;2023-02-01T06:34:42;99813.81;;;10.68;32.79
73870;BME280;64924;42.140;24.762;2023-02-01T06:37:08;99824.16;;;11.01;31.78
73870;BME280;64924;42.140;24.762;2023-02-01T06:39:34;99801.97;;;10.97;31.54
73870;BME280;64924;42.140;24.762;2023-02-01T06:41:59;99802.41;;;11.01;31.59
73870;BME280;64924;42.140;24.762;2023-02-01T06:44:25;99816.03;;;11.29;31.54
73870;BME280;64924;42.140;24.762;2023-02-01T06:46:50;99822.09;;;11.03;31.60
73870;BME280;64924;42.140;24.762;2023-02-01T06:49:16;99824.50;;;10.55;32.30
73870;BME280;64924;42.140;24.762;2023-02-01T06:51:41;99832.91;;;10.24;32.44
73870;BME280;64924;42.140;24.762;2023-02-01T06:54:07;99832.63;;;9.75;33.08
73870;BME280;64924;42.140;24.762;2023-02-01T06:56:32;99828.13;;;9.53;33.33
73870;BME280;64924;42.140;24.762;2023-02-01T06:58:58;99838.38;;;9.43;33.71
73870;BME280;64924;42.140;24.762;2023-02-01T07:01:23;99795.75;;;9.51;32.93
73870;BME280;64924;42.140;24.762;2023-02-01T07:03:49;99841.53;;;9.84;33.32
73870;BME280;64924;42.140;24.762;2023-02-01T07:06:16;99834.13;;;9.63;33.54
73870;BME280;64924;42.140;24.762;2023-02-01T07:08:45;99842.41;;;9.47;33.83
73870;BME280;64924;42.140;24.762;2023-02-01T07:11:13;99839.28;;;9.20;34.20
73870;BME280;64924;42.140;24.762;2023-02-01T07:13:39;99838.22;;;8.84;35.11
73870;BME280;64924;42.140;24.762;2023-02-01T07:16:08;99835.66;;;8.59;35.27
73870;BME280;64924;42.140;24.762;2023-02-01T07:18:34;99819.59;;;8.19;36.30
73870;BME280;64924;42.140;24.762;2023-02-01T07:20:59;99834.91;;;8.03;36.29
73870;BME280;64924;42.140;24.762;2023-02-01T07:23:26;99843.53;;;8.07;36.27
73870;BME280;64924;42.140;24.762;2023-02-01T07:26:00;99853.69;;;7.97;36.64
73870;BME280;64924;42.140;24.762;2023-02-01T07:28:26;99862.84;;;7.88;36.63
73870;BME280;64924;42.140;24.762;2023-02-01T07:30:53;99854.59;;;7.81;37.21
73870;BME280;64924;42.140;24.762;2023-02-01T07:33:23;99864.72;;;7.87;37.00
73870;BME280;64924;42.140;24.762;2023-02-01T07:35:50;99858.34;;;7.72;36.88
73870;BME280;64924;42.140;24.762;2023-02-01T07:38:16;99857.84;;;7.68;37.18
73870;BME280;64924;42.140;24.762;2023-02-01T07:40:42;99859.72;;;7.68;37.26
73870;BME280;64924;42.140;24.762;2023-02-01T07:43:08;99854.78;;;7.80;37.06
73870;BME280;64924;42.140;24.762;2023-02-01T07:45:35;99843.25;;;7.86;36.89
73870;BME280;64924;42.140;24.762;2023-02-01T07:48:01;99843.06;;;7.95;37.19
73870;BME280;64924;42.140;24.762;2023-02-01T07:50:27;99843.41;;;7.92;36.77
73870;BME280;64924;42.140;24.762;2023-02-01T07:52:53;99862.13;;;8.10;36.72
73870;BME280;64924;42.140;24.762;2023-02-01T07:55:21;99849.56;;;8.17;36.39
73870;BME280;64924;42.140;24.762;2023-02-01T07:57:47;99852.63;;;8.14;36.60
73870;BME280;64924;42.140;24.762;2023-02-01T08:00:13;99861.44;;;8.16;36.35
73870;BME280;64924;42.140;24.762;2023-02-01T08:02:58;99852.34;;;8.01;36.62
73870;BME280;64924;42.140;24.762;2023-02-01T08:05:24;99863.69;;;7.96;37.05
73870;BME280;64924;42.140;24.762;2023-02-01T08:07:50;99843.75;;;7.89;37.11
73870;BME280;64924;42.140;24.762;2023-02-01T08:10:16;99820.06;;;7.91;36.77
73870;BME280;64924;42.140;24.762;2023-02-01T08:12:42;99857.16;;;8.22;36.70
73870;BME280;64924;42.140;24.762;2023-02-01T08:15:08;99855.06;;;8.32;36.32
73870;BME280;64924;42.140;24.762;2023-02-01T08:17:33;99864.88;;;8.41;36.40
73870;BME280;64924;42.140;24.762;2023-02-01T08:19:59;99822.28;;;8.27;36.48
73870;BME280;64924;42.140;24.762;2023-02-01T08:22:24;99867.19;;;8.52;36.33
73870;BME280;64924;42.140;24.762;2023-02-01T08:24:50;99796.69;;;8.07;36.80
73870;BME280;64924;42.140;24.762;2023-02-01T08:27:16;99860.09;;;8.51;36.36
73870;BME280;64924;42.140;24.762;2023-02-01T08:29:41;99864.78;;;8.57;36.72
73870;BME280;64924;42.140;24.762;2023-02-01T08:32:07;99866.88;;;8.47;36.72
73870;BME280;64924;42.140;24.762;2023-02-01T08:34:32;99869.66;;;8.62;36.49
73870;BME280;64924;42.140;24.762;2023-02-01T08:36:58;99854.50;;;8.53;36.38
73870;BME280;64924;42.140;24.762;2023-02-01T08:39:25;99871.31;;;8.71;36.18
73870;BME280;64924;42.140;24.762;2023-02-01T08:41:50;99826.81;;;8.43;36.49
73870;BME280;64924;42.140;24.762;2023-02-01T08:44:34;99864.69;;;8.74;36.29
73870;BME280;64924;42.140;24.762;2023-02-01T08:47:01;99861.31;;;8.71;36.15
73870;BME280;64924;42.140;24.762;2023-02-01T08:49:26;99875.56;;;8.65;36.72
73870;BME280;64924;42.140;24.762;2023-02-01T08:51:52;99865.22;;;8.69;36.48
73870;BME280;64924;42.140;24.762;2023-02-01T08:54:17;99870.28;;;8.72;36.44
73870;BME280;64924;42.140;24.762;2023-02-01T08:56:42;99865.31;;;8.84;36.20
73870;BME280;64924;42.140;24.762;2023-02-01T08:59:08;99867.34;;;8.82;36.03
73870;BME280;64924;42.140;24.762;2023-02-01T09:01:33;99857.09;;;8.92;36.07
73870;BME280;64924;42.140;24.762;2023-02-01T09:04:17;99859.28;;;9.19;36.01
73870;BME280;64924;42.140;24.762;2023-02-01T09:06:43;99835.91;;;9.18;35.98
73870;BME280;64924;42.140;24.762;2023-02-01T09:09:10;99863.63;;;9.43;35.65
73870;BME280;64924;42.140;24.762;2023-02-01T09:11:36;99858.81;;;9.68;35.88
73870;BME280;64924;42.140;24.762;2023-02-01T09:14:08;99861.03;;;10.67;34.09
73870;BME280;64924;42.140;24.762;2023-02-01T09:16:34;99860.13;;;11.46;32.60
73870;BME280;64924;42.140;24.762;2023-02-01T09:18:59;99832.38;;;12.26;31.54
73870;BME280;64924;42.140;24.762;2023-02-01T09:21:24;99813.09;;;12.82;30.26
73870;BME280;64924;42.140;24.762;2023-02-01T09:23:51;99828.91;;;13.32;29.22
73870;BME280;64924;42.140;24.762;2023-02-01T09:26:17;99818.59;;;13.61;28.64
73870;BME280;64924;42.140;24.762;2023-02-01T09:28:44;99823.78;;;14.02;28.37
73870;BME280;64924;42.140;24.762;2023-02-01T09:31:10;99814.03;;;14.19;28.06
73870;BME280;64924;42.140;24.762;2023-02-01T09:33:36;99818.03;;;14.23;28.07
73870;BME280;64924;42.140;24.762;2023-02-01T09:36:04;99812.00;;;14.08;28.60
73870;BME280;64924;42.140;24.762;2023-02-01T09:38:30;99819.59;;;13.93;28.73
73870;BME280;64924;42.140;24.762;2023-02-01T09:40:57;99804.69;;;13.82;28.85
73870;BME280;64924;42.140;24.762;2023-02-01T09:43:44;99797.00;;;14.24;28.53
73870;BME280;64924;42.140;24.762;2023-02-01T09:46:23;99786.09;;;14.17;28.59
73870;BME280;64924;42.140;24.762;2023-02-01T09:48:53;99788.53;;;13.74;29.29
73870;BME280;64924;42.140;24.762;2023-02-01T09:51:23;99761.28;;;13.54;29.56
73870;BME280;64924;42.140;24.762;2023-02-01T09:54:18;99782.28;;;13.54;29.65
73870;BME280;64924;42.140;24.762;2023-02-01T09:56:48;99784.63;;;13.17;29.53
73870;BME280;64924;42.140;24.762;2023-02-01T09:59:37;99777.25;;;12.98;29.72
73870;BME280;64924;42.140;24.762;2023-02-01T10:02:14;99766.63;;;12.35;30.80
73870;BME280;64924;42.140;24.762;2023-02-01T10:04:57;99779.38;;;12.28;30.92
73870;BME280;64924;42.140;24.762;2023-02-01T10:13:01;99747.72;;;12.27;31.10
73870;BME280;64924;42.140;24.762;2023-02-01T10:23:54;99761.28;;;11.73;32.27
73870;BME280;64924;42.140;24.762;2023-02-01T10:26:29;99719.69;;;11.45;32.66
73870;BME280;64924;42.140;24.762;2023-02-01T10:29:03;99768.34;;;11.61;32.67
73870;BME280;64924;42.140;24.762;2023-02-01T10:31:31;99766.38;;;11.48;32.87
73870;BME280;64924;42.140;24.762;2023-02-01T10:34:01;99708.28;;;11.28;32.44
73870;BME280;64924;42.140;24.762;2023-02-01T10:36:39;99763.38;;;11.36;32.87
73870;BME280;64924;42.140;24.762;2023-02-01T10:39:06;99761.63;;;11.29;32.83
73870;BME280;64924;42.140;24.762;2023-02-01T10:41:36;99752.53;;;11.15;33.05
73870;BME280;64924;42.140;24.762;2023-02-01T10:44:09;99758.25;;;10.99;33.23
73870;BME280;64924;42.140;24.762;2023-02-01T10:46:37;99665.59;;;10.45;33.51
73870;BME280;64924;42.140;24.762;2023-02-01T10:49:04;99754.78;;;11.05;33.36
73870;BME280;64924;42.140;24.762;2023-02-01T10:52:01;99752.63;;;11.00;33.37
73870;BME280;64924;42.140;24.762;2023-02-01T10:54:35;99743.84;;;10.98;33.72
73870;BME280;64924;42.140;24.762;2023-02-01T10:59:46;99742.47;;;10.88;33.33
73870;BME280;64924;42.140;24.762;2023-02-01T11:02:19;99743.31;;;11.10;33.33
73870;BME280;64924;42.140;24.762;2023-02-01T11:04:46;99728.88;;;11.09;33.06
73870;BME280;64924;42.140;24.762;2023-02-01T11:07:23;99731.22;;;11.19;32.93
73870;BME280;64924;42.140;24.762;2023-02-01T11:09:52;99735.16;;;11.16;33.20
73870;BME280;64924;42.140;24.762;2023-02-01T11:14:59;99699.09;;;11.01;33.18
73870;BME280;64924;42.140;24.762;2023-02-01T11:17:32;99703.94;;;11.05;33.25
73870;BME280;64924;42.140;24.762;2023-02-01T11:20:00;99691.09;;;10.93;33.53
73870;BME280;64924;42.140;24.762;2023-02-01T11:22:27;99697.28;;;11.08;33.42
73870;BME280;64924;42.140;24.762;2023-02-01T11:24:55;99685.06;;;10.97;33.37
73870;BME280;64924;42.140;24.762;2023-02-01T11:27:23;99696.25;;;11.16;33.37
73870;BME280;64924;42.140;24.762;2023-02-01T11:29:52;99702.97;;;11.13;33.23
73870;BME280;64924;42.140;24.762;2023-02-01T11:32:22;99653.69;;;10.95;33.42
73870;BME280;64924;42.140;24.762;2023-02-01T11:34:54;99683.31;;;11.18;33.37
73870;BME280;64924;42.140;24.762;2023-02-01T11:37:27;99690.06;;;11.28;33.21
73870;BME280;64924;42.140;24.762;2023-02-01T11:39:59;99695.06;;;11.25;33.37
73870;BME280;64924;42.140;24.762;2023-02-01T11:42:26;99694.44;;;11.23;33.46
73870;BME280;64924;42.140;24.762;2023-02-01T11:45:17;99685.97;;;11.39;32.98
73870;BME280;64924;42.140;24.762;2023-02-01T11:47:43;99697.84;;;11.31;33.21
73870;BME280;64924;42.140;24.762;2023-02-01T11:50:17;99693.72;;;11.42;32.96
73870;BME280;64924;42.140;24.762;2023-02-01T12:20:37;99666.31;;;11.44;32.59
73870;BME280;64924;42.140;24.762;2023-02-01T12:26:05;99665.03;;;11.39;32.69
73870;BME280;64924;42.140;24.762;2023-02-01T12:34:20;99655.53;;;11.22;33.25
73870;BME280;64924;42.140;24.762;2023-02-01T12:37:11;99660.59;;;11.32;32.89
73870;BME280;64924;42.140;24.762;2023-02-01T12:42:35;99655.16;;;11.32;32.15
73870;BME280;64924;42.140;24.762;2023-02-01T12:45:32;99645.59;;;11.43;32.14
73870;BME280;64924;42.140;24.762;2023-02-01T12:50:33;99658.84;;;11.59;32.06
73870;BME280;64924;42.140;24.762;2023-02-01T12:53:09;99644.25;;;11.73;31.83
73870;BME280;64924;42.140;24.762;2023-02-01T12:55:47;99656.69;;;11.82;31.67
73870;BME280;64924;42.140;24.762;2023-02-01T12:58:17;99648.22;;;11.70;31.60
73870;BME280;64924;42.140;24.762;2023-02-01T13:00:50;99659.41;;;11.82;31.98
73870;BME280;64924;42.140;24.762;2023-02-01T13:03:40;99655.13;;;11.66;32.06
73870;BME280;64924;42.140;24.762;2023-02-01T13:06:34;99661.31;;;11.54;32.33
73870;BME280;64924;42.140;24.762;2023-02-01T13:09:25;99660.00;;;11.36;32.40
73870;BME280;64924;42.140;24.762;2023-02-01T13:11:54;99663.63;;;11.16;33.06
73870;BME280;64924;42.140;24.762;2023-02-01T13:14:35;99671.56;;;11.11;32.85
73870;BME280;64924;42.140;24.762;2023-02-01T13:17:09;99693.59;;;10.94;32.83
73870;BME280;64924;42.140;24.762;2023-02-01T13:19:48;99676.00;;;10.90;33.17
73870;BME280;64924;42.140;24.762;2023-02-01T13:22:21;99684.41;;;10.95;33.26
73870;BME280;64924;42.140;24.762;2023-02-01T13:25:02;99679.69;;;11.04;33.38
73870;BME280;64924;42.140;24.762;2023-02-01T13:27:30;99645.41;;;10.75;33.65
73870;BME280;64924;42.140;24.762;2023-02-01T13:30:01;99678.00;;;11.03;33.49
73870;BME280;64924;42.140;24.762;2023-02-01T13:32:35;99687.78;;;10.97;33.54
73870;BME280;64924;42.140;24.762;2023-02-01T13:35:16;99650.97;;;10.95;33.24
73870;BME280;64924;42.140;24.762;2023-02-01T13:40:41;99664.16;;;10.98;32.92
73870;BME280;64924;42.140;24.762;2023-02-01T13:43:13;99693.38;;;11.24;32.63
73870;BME280;64924;42.140;24.762;2023-02-01T13:45:55;99686.53;;;11.28;32.36
73870;BME280;64924;42.140;24.762;2023-02-01T13:48:27;99694.81;;;11.20;32.58
73870;BME280;64924;42.140;24.762;2023-02-01T13:50:56;99655.75;;;10.93;32.35
73870;BME280;64924;42.140;24.762;2023-02-01T13:53:28;99693.91;;;11.06;32.56
73870;BME280;64924;42.140;24.762;2023-02-01T13:55:57;99699.63;;;10.90;32.88
73870;BME280;64924;42.140;24.762;2023-02-01T13:58:31;99690.31;;;10.99;32.90
73870;BME280;64924;42.140;24.762;2023-02-01T14:06:36;99685.16;;;11.11;32.17
73870;BME280;64924;42.140;24.762;2023-02-01T14:19:22;99678.94;;;10.89;32.37
73870;BME280;64924;42.140;24.762;2023-02-01T14:21:53;99660.22;;;10.73;32.47
73870;BME280;64924;42.140;24.762;2023-02-01T14:24:27;99649.53;;;10.71;32.26
73870;BME280;64924;42.140;24.762;2023-02-01T14:26:55;99678.88;;;10.82;32.35
73870;BME280;64924;42.140;24.762;2023-02-01T14:29:38;99687.53;;;10.92;32.52
73870;BME280;64924;42.140;24.762;2023-02-01T14:32:04;99686.19;;;10.82;32.18
73870;BME280;64924;42.140;24.762;2023-02-01T14:34:50;99673.81;;;10.79;32.25
73870;BME280;64924;42.140;24.762;2023-02-01T14:42:24;99688.25;;;10.80;32.91
73870;BME280;64924;42.140;24.762;2023-02-01T14:44:52;99645.34;;;10.47;32.83
73870;BME280;64924;42.140;24.762;2023-02-01T14:49:57;99689.47;;;10.70;33.05
73870;BME280;64924;42.140;24.762;2023-02-01T14:52:30;99687.84;;;10.76;32.96
73870;BME280;64924;42.140;24.762;2023-02-01T14:55:04;99699.81;;;10.60;33.39
73870;BME280;64924;42.140;24.762;2023-02-01T14:57:34;99659.28;;;10.37;33.31
73870;BME280;64924;42.140;24.762;2023-02-01T15:00:24;99703.94;;;10.56;33.27
73870;BME280;64924;42.140;24.762;2023-02-01T15:02:52;99701.16;;;10.50;33.70
73870;BME280;64924;42.140;24.762;2023-02-01T15:07:52;99703.63;;;10.45;33.45
73870;BME280;64924;42.140;24.762;2023-02-01T15:10:19;99696.50;;;10.44;33.21
73870;BME280;64924;42.140;24.762;2023-02-01T15:12:45;99674.41;;;10.25;33.46
73870;BME280;64924;42.140;24.762;2023-02-01T15:15:31;99686.09;;;10.47;33.37
73870;BME280;64924;42.140;24.762;2023-02-01T15:18:01;99688.44;;;10.29;33.61